Terminal Aerodrome Forecast
Issued by NWS

Home | Current Version | Previous Version | Text Only | Print | Product List | Glossary On
Versions: 1 2 3 4 5 6 7 8 9 10 11 12 13 14 15 16 17 18 19 20 21 22 23 24 25 26
559
FTUS43 KDVN 301135
TAFCID
TAF
KCID 301135Z 3012/3112 05006KT P6SM OVC040
     FM302000 04005KT P6SM VCSH BKN040
     FM310100 09003KT P6SM BKN050=

USA.gov is the U.S. government's official web portal to all federal, state and local government web resources and services.